createdAt,value
2022-08-12T00:00:34.905Z,2.10
2022-08-12T00:03:23.698Z,2.03
2022-08-12T00:06:10.188Z,2.15
2022-08-12T00:08:58.419Z,1.98
2022-08-12T00:11:45.812Z,1.92
2022-08-12T00:14:32.668Z,2.15
2022-08-12T00:17:18.500Z,2.10
2022-08-12T00:20:05.200Z,1.77
2022-08-12T00:22:59.398Z,1.90
2022-08-12T00:26:21.573Z,1.88
2022-08-12T00:29:09.085Z,1.83
2022-08-12T00:31:55.177Z,1.85
2022-08-12T00:34:41.490Z,1.70
2022-08-12T00:40:15.063Z,1.90
2022-08-12T00:42:43.132Z,1.90
2022-08-12T00:45:11.174Z,2.10
2022-08-12T00:47:39.199Z,2.00
2022-08-12T00:50:07.611Z,2.17
2022-08-12T00:52:36.220Z,1.90
2022-08-12T00:55:06.067Z,2.10
2022-08-12T00:57:37.057Z,1.98
2022-08-12T01:00:09.943Z,2.08
2022-08-12T01:02:40.378Z,2.05
2022-08-12T01:05:34.827Z,1.85
2022-08-12T01:08:20.868Z,1.95
2022-08-12T01:11:08.267Z,1.83
2022-08-12T01:13:39.971Z,2.00
2022-08-12T01:16:09.823Z,2.05
2022-08-12T01:18:40.600Z,1.95
2022-08-12T01:21:19.426Z,1.83
2022-08-12T01:24:30.142Z,2.15
2022-08-12T01:27:01.404Z,1.88
2022-08-12T01:29:32.622Z,1.83
2022-08-12T01:32:05.572Z,2.00
2022-08-12T01:34:37.713Z,2.00
2022-08-12T01:37:09.433Z,1.80
2022-08-12T01:40:36.001Z,2.25
2022-08-12T01:42:52.126Z,1.80
2022-08-12T01:45:24.831Z,1.95
2022-08-12T01:48:17.078Z,1.83
2022-08-12T01:51:09.867Z,1.60
2022-08-12T01:54:05.835Z,1.88
2022-08-12T01:56:39.754Z,1.83
2022-08-12T01:59:28.597Z,2.00
2022-08-12T02:01:58.942Z,1.52
2022-08-12T02:05:01.701Z,1.65
2022-08-12T02:08:05.015Z,1.95
2022-08-12T02:10:55.599Z,2.22
2022-08-12T02:14:01.677Z,1.85
2022-08-12T02:16:46.505Z,2.30
2022-08-12T02:19:32.424Z,1.70
2022-08-12T02:22:28.320Z,1.90
2022-08-12T02:25:08.488Z,2.00
2022-08-12T02:27:41.582Z,1.90
2022-08-12T02:30:15.561Z,1.90
2022-08-12T02:32:44.841Z,1.80
2022-08-12T02:35:15.078Z,1.90
2022-08-12T02:37:43.858Z,1.77
2022-08-12T02:40:13.627Z,1.58
2022-08-12T02:42:51.216Z,1.90
2022-08-12T02:45:25.991Z,1.70
2022-08-12T02:48:01.394Z,1.88
2022-08-12T02:50:31.728Z,1.50
2022-08-12T02:52:59.636Z,2.00
2022-08-12T02:55:34.959Z,1.80
2022-08-12T02:58:12.346Z,1.88
2022-08-12T03:00:43.673Z,1.92
2022-08-12T03:03:13.259Z,2.05
2022-08-12T03:05:58.087Z,1.70
2022-08-12T03:08:35.335Z,2.05
2022-08-12T03:11:20.755Z,1.65
2022-08-12T03:13:58.135Z,1.80
2022-08-12T03:16:28.147Z,1.77
2022-08-12T03:18:55.342Z,1.98
2022-08-12T03:21:55.297Z,1.80
2022-08-12T03:24:17.584Z,2.00
2022-08-12T03:26:47.507Z,1.75
2022-08-12T03:29:16.559Z,1.90
2022-08-12T03:31:44.207Z,1.65
2022-08-12T03:34:14.461Z,1.35
2022-08-12T03:36:42.787Z,1.75
2022-08-12T03:39:14.409Z,2.05
2022-08-12T03:41:52.586Z,2.00
2022-08-12T03:44:50.043Z,1.83
2022-08-12T03:47:44.073Z,1.50
2022-08-12T03:50:31.037Z,1.87
2022-08-12T03:53:16.581Z,1.70
2022-08-12T03:56:02.352Z,1.70
2022-08-12T03:58:48.592Z,1.85
2022-08-12T04:01:16.240Z,1.90
2022-08-12T04:03:53.354Z,1.77
2022-08-12T04:06:34.295Z,1.75
2022-08-12T04:09:16.446Z,1.60
2022-08-12T04:12:04.388Z,2.00
2022-08-12T04:14:32.382Z,1.83
2022-08-12T04:17:01.005Z,1.88
2022-08-12T04:19:28.667Z,2.10
2022-08-12T04:22:02.224Z,1.90
2022-08-12T04:24:36.721Z,1.75
2022-08-12T04:27:10.734Z,2.05
2022-08-12T04:30:16.758Z,2.10
2022-08-12T04:32:28.064Z,1.75
2022-08-12T04:34:55.847Z,1.83
2022-08-12T04:37:23.386Z,1.60
2022-08-12T04:39:54.207Z,1.83
2022-08-12T04:42:22.184Z,2.10
2022-08-12T04:44:49.441Z,1.88
2022-08-12T04:47:17.151Z,1.75
2022-08-12T04:49:46.180Z,1.83
2022-08-12T04:52:13.499Z,2.00
2022-08-12T04:54:44.188Z,1.92
2022-08-12T04:57:11.696Z,1.90
2022-08-12T04:59:46.829Z,1.80
2022-08-12T05:02:20.467Z,1.92
2022-08-12T05:04:51.839Z,1.88
2022-08-12T05:07:20.304Z,1.90
2022-08-12T05:09:59.003Z,1.60
2022-08-12T05:12:37.919Z,1.67
2022-08-12T05:15:16.747Z,2.42
2022-08-12T05:17:46.453Z,1.92
2022-08-12T05:20:17.402Z,1.88
2022-08-12T05:22:45.370Z,2.13
2022-08-12T05:25:13.905Z,1.80
2022-08-12T05:27:40.899Z,1.80
2022-08-12T05:30:33.542Z,2.08
2022-08-12T05:33:05.809Z,1.98
2022-08-12T05:35:39.868Z,1.98
2022-08-12T05:38:26.165Z,1.88
2022-08-12T05:40:53.267Z,1.80
2022-08-12T05:43:20.536Z,1.45
2022-08-12T05:45:47.935Z,1.75
2022-08-12T05:48:19.099Z,1.60
2022-08-12T05:50:46.352Z,2.20
2022-08-12T05:53:13.510Z,1.90
2022-08-12T05:55:41.210Z,1.80
2022-08-12T05:58:08.225Z,2.05
2022-08-12T06:00:36.322Z,1.90
2022-08-12T06:03:04.866Z,1.67
2022-08-12T06:05:43.272Z,2.47
2022-08-12T06:08:22.256Z,1.70
2022-08-12T06:10:52.048Z,1.85
2022-08-12T06:13:28.274Z,2.08
2022-08-12T06:16:09.939Z,2.00
2022-08-12T06:18:40.331Z,2.42
2022-08-12T06:21:12.605Z,2.00
2022-08-12T06:23:42.722Z,1.92
2022-08-12T06:26:17.002Z,2.10
2022-08-12T06:28:46.217Z,2.25
2022-08-12T06:31:32.133Z,1.60
2022-08-12T06:35:23.460Z,1.90
2022-08-12T06:36:48.038Z,2.08
2022-08-12T06:39:16.810Z,1.88
2022-08-12T06:42:42.105Z,2.50
2022-08-12T06:44:50.648Z,1.90
2022-08-12T06:47:19.642Z,1.92
2022-08-12T06:49:48.643Z,2.17
2022-08-12T06:52:17.400Z,1.80
2022-08-12T06:54:46.982Z,1.55
2022-08-12T06:58:01.890Z,1.92
2022-08-12T07:00:01.816Z,2.42
2022-08-12T07:02:30.679Z,1.92
2022-08-12T07:04:59.480Z,1.73
2022-08-12T07:07:29.048Z,1.60
2022-08-12T07:10:05.680Z,2.10
2022-08-12T07:12:34.482Z,1.80
2022-08-12T07:15:03.680Z,2.10
2022-08-12T07:17:36.706Z,1.80
2022-08-12T07:20:09.929Z,1.83
2022-08-12T07:22:39.941Z,1.58
2022-08-12T07:25:37.907Z,1.55
2022-08-12T07:28:16.061Z,1.65
2022-08-12T07:30:45.112Z,1.60
2022-08-12T07:33:13.595Z,1.48
2022-08-12T07:35:48.419Z,1.85
2022-08-12T07:38:30.706Z,1.75
2022-08-12T07:41:02.758Z,1.77
2022-08-12T07:43:31.431Z,1.90
2022-08-12T07:46:02.918Z,1.70
2022-08-12T07:48:36.940Z,2.00
2022-08-12T07:53:31.466Z,2.10
2022-08-12T07:56:00.694Z,1.35
2022-08-12T07:58:27.965Z,1.58
2022-08-12T08:00:57.793Z,1.85
2022-08-12T08:03:25.952Z,1.33
2022-08-12T08:05:54.050Z,1.77
2022-08-12T08:08:28.770Z,1.70
2022-08-12T08:11:18.466Z,1.38
2022-08-12T08:13:47.241Z,1.98
2022-08-12T08:16:15.359Z,1.48
2022-08-12T08:18:43.714Z,1.65
2022-08-12T08:21:11.197Z,1.73
2022-08-12T08:24:01.995Z,1.67
2022-08-12T08:26:34.474Z,1.50
2022-08-12T08:29:05.144Z,1.52
2022-08-12T08:31:32.180Z,1.40
2022-08-12T08:34:27.475Z,1.30
2022-08-12T08:36:47.254Z,1.73
2022-08-12T08:39:21.730Z,1.58
2022-08-12T08:42:13.895Z,1.25
2022-08-12T08:44:47.205Z,1.40
2022-08-12T08:47:22.032Z,1.40
2022-08-12T08:49:49.050Z,1.40
2022-08-12T08:52:39.731Z,1.50
2022-08-12T08:55:04.398Z,1.20
2022-08-12T08:57:43.459Z,2.38
2022-08-12T09:00:16.846Z,1.42
2022-08-12T09:02:49.481Z,1.20
2022-08-12T09:05:43.230Z,1.40
2022-08-12T09:08:23.163Z,1.52
2022-08-12T09:11:00.115Z,1.70
2022-08-12T09:14:10.404Z,1.30
2022-08-12T09:16:20.856Z,1.48
2022-08-12T09:18:52.196Z,1.58
2022-08-12T09:21:20.431Z,1.25
2022-08-12T09:23:59.322Z,1.65
2022-08-12T09:26:31.306Z,1.40
2022-08-12T09:29:12.127Z,1.30
2022-08-12T09:32:03.728Z,1.30
2022-08-12T09:34:33.875Z,1.17
2022-08-12T09:37:19.966Z,1.45
2022-08-12T09:40:03.304Z,1.58
2022-08-12T09:43:16.039Z,1.60
2022-08-12T09:46:20.663Z,1.50
2022-08-12T09:48:36.295Z,1.40
2022-08-12T09:51:16.708Z,1.42
2022-08-12T09:54:05.456Z,2.13
2022-08-12T09:57:02.888Z,3.30
2022-08-12T10:00:14.911Z,1.60
2022-08-12T10:02:42.675Z,1.20
2022-08-12T10:05:13.165Z,1.67
2022-08-12T10:07:40.980Z,1.38
2022-08-12T10:10:22.220Z,1.38
2022-08-12T10:13:13.486Z,1.38
2022-08-12T10:16:02.122Z,1.40
2022-08-12T10:18:35.305Z,1.20
2022-08-12T10:21:07.828Z,1.25
2022-08-12T10:23:39.827Z,1.10
2022-08-12T10:26:38.058Z,1.02
2022-08-12T10:30:40.711Z,0.95
2022-08-12T10:33:02.249Z,1.02
2022-08-12T10:35:14.056Z,1.45
2022-08-12T10:38:37.371Z,1.10
2022-08-12T10:40:34.292Z,0.95
2022-08-12T10:43:25.962Z,1.20
2022-08-12T10:45:58.330Z,1.08
2022-08-12T10:48:34.110Z,1.20
2022-08-12T10:52:04.112Z,1.00
2022-08-12T10:54:00.714Z,1.10
2022-08-12T10:56:34.954Z,1.20
2022-08-12T10:59:05.390Z,1.10
2022-08-12T11:04:19.741Z,1.15
2022-08-12T11:04:39.441Z,1.20
2022-08-12T11:08:37.037Z,1.27
2022-08-12T11:10:01.831Z,0.95
2022-08-12T11:12:54.932Z,1.10
2022-08-12T11:15:32.926Z,1.13
2022-08-12T11:18:17.829Z,0.90
2022-08-12T11:20:48.050Z,1.23
2022-08-12T11:23:33.989Z,0.90
2022-08-12T11:26:06.289Z,1.42
2022-08-12T11:28:37.110Z,1.20
2022-08-12T11:31:12.200Z,1.35
2022-08-12T11:34:06.719Z,1.20
2022-08-12T11:36:33.407Z,1.30
2022-08-12T11:39:06.812Z,1.10
2022-08-12T11:41:34.843Z,1.33
2022-08-12T11:44:33.345Z,1.27
2022-08-12T11:46:54.169Z,1.05
2022-08-12T11:49:31.602Z,1.30
2022-08-12T11:52:04.358Z,1.38
2022-08-12T11:54:50.821Z,1.15
2022-08-12T11:58:07.195Z,1.10
2022-08-12T12:02:55.081Z,1.20
2022-08-12T12:05:22.084Z,1.20
2022-08-12T12:08:37.560Z,1.10
2022-08-12T12:10:43.098Z,1.20
2022-08-12T12:13:11.588Z,1.38
2022-08-12T12:15:50.233Z,0.90
2022-08-12T12:18:30.910Z,0.80
2022-08-12T12:21:00.239Z,1.02
2022-08-12T12:23:29.609Z,0.80
2022-08-12T12:26:06.869Z,1.10
2022-08-12T12:28:39.351Z,0.95
2022-08-12T12:31:14.807Z,0.80
2022-08-12T12:33:58.309Z,1.25
2022-08-12T12:36:30.295Z,0.93
2022-08-12T12:39:00.208Z,1.17
2022-08-12T12:42:41.644Z,1.10
2022-08-12T12:44:30.325Z,1.10
2022-08-12T12:47:03.133Z,0.98
2022-08-12T12:49:30.356Z,0.63
2022-08-12T12:52:18.614Z,0.80
2022-08-12T12:54:53.058Z,1.20
2022-08-12T12:57:35.876Z,0.95
2022-08-12T13:00:20.574Z,0.80
2022-08-12T13:02:55.638Z,0.82
2022-08-12T13:05:28.028Z,0.90
2022-08-12T13:08:01.252Z,1.25
2022-08-12T13:10:36.572Z,1.00
2022-08-12T13:14:06.990Z,0.90
2022-08-12T13:15:53.905Z,1.10
2022-08-12T13:18:33.534Z,0.80
2022-08-12T13:21:02.437Z,1.10
2022-08-12T13:23:36.570Z,1.08
2022-08-12T13:26:14.321Z,1.02
2022-08-12T13:28:55.859Z,1.00
2022-08-12T13:31:25.577Z,0.95
2022-08-12T13:34:33.696Z,0.77
2022-08-12T13:36:42.264Z,1.10
2022-08-12T13:39:09.940Z,1.10
2022-08-12T13:41:37.793Z,1.00
2022-08-12T13:44:10.560Z,1.10
2022-08-12T13:46:38.868Z,0.98
2022-08-12T13:49:07.814Z,1.20
2022-08-12T13:51:41.335Z,1.08
2022-08-12T13:54:13.897Z,0.90
2022-08-12T13:56:50.056Z,1.10
2022-08-12T13:59:24.495Z,0.80
2022-08-12T14:01:56.832Z,0.95
2022-08-12T14:04:24.377Z,1.00
2022-08-12T14:06:52.043Z,1.05
2022-08-12T14:09:20.814Z,1.10
2022-08-12T14:11:58.406Z,1.20
2022-08-12T14:14:31.151Z,1.27
2022-08-12T14:17:05.474Z,1.00
2022-08-12T14:19:39.270Z,0.98
2022-08-12T14:22:20.214Z,0.90
2022-08-12T14:24:47.697Z,1.00
2022-08-12T14:28:02.447Z,1.02
2022-08-12T14:30:15.227Z,1.00
2022-08-12T14:32:45.320Z,1.00
2022-08-12T14:35:12.603Z,0.90
2022-08-12T14:37:57.436Z,1.05
2022-08-12T14:40:31.158Z,1.05
2022-08-12T14:42:59.008Z,1.05
2022-08-12T14:45:44.549Z,0.80
2022-08-12T14:48:24.161Z,1.35
2022-08-12T14:51:09.568Z,1.00
2022-08-12T14:56:59.387Z,1.05
2022-08-12T14:59:56.267Z,1.10
2022-08-12T15:02:25.968Z,1.00
2022-08-12T15:05:03.609Z,0.88
2022-08-12T15:07:50.303Z,0.90
2022-08-12T15:10:24.944Z,0.90
2022-08-12T15:12:59.171Z,1.20
2022-08-12T15:15:26.372Z,1.40
2022-08-12T15:18:02.064Z,1.50
2022-08-12T15:20:32.993Z,0.85
2022-08-12T15:23:17.977Z,1.17
2022-08-12T15:26:02.749Z,1.65
2022-08-12T15:28:35.390Z,1.35
2022-08-12T15:31:09.581Z,1.48
2022-08-12T15:33:57.105Z,1.27
2022-08-12T15:36:50.244Z,1.10
2022-08-12T15:39:16.962Z,1.25
2022-08-12T15:41:49.374Z,1.20
2022-08-12T15:44:37.710Z,0.93
2022-08-12T15:47:06.291Z,1.27
2022-08-12T15:49:43.425Z,1.33
2022-08-12T15:52:27.644Z,1.20
2022-08-12T15:54:58.490Z,1.00
2022-08-12T15:57:27.583Z,1.00
2022-08-12T16:00:06.479Z,1.10
2022-08-12T16:02:49.491Z,1.10
2022-08-12T16:06:11.145Z,1.17
2022-08-12T16:08:17.159Z,1.70
2022-08-12T16:10:47.784Z,1.05
2022-08-12T16:13:32.751Z,1.10
2022-08-12T16:16:22.883Z,1.27
2022-08-12T16:19:01.996Z,1.08
2022-08-12T16:21:51.147Z,1.00
2022-08-12T16:24:23.324Z,1.40
2022-08-12T16:26:54.041Z,1.23
2022-08-12T16:29:38.732Z,1.10
2022-08-12T16:32:24.520Z,1.20
2022-08-12T16:35:00.790Z,1.48
2022-08-12T16:38:25.817Z,1.08
2022-08-12T16:40:20.807Z,1.20
2022-08-12T16:42:54.062Z,1.30
2022-08-12T16:46:23.352Z,1.40
2022-08-12T16:48:36.167Z,1.08
2022-08-12T16:51:09.657Z,1.00
2022-08-12T16:53:44.330Z,1.10
2022-08-12T16:56:15.505Z,1.10
2022-08-12T16:58:47.350Z,0.95
2022-08-12T17:01:16.500Z,1.42
2022-08-12T17:03:59.670Z,1.30
2022-08-12T17:06:29.513Z,1.30
2022-08-12T17:09:03.009Z,1.10
2022-08-12T17:11:31.261Z,1.17
2022-08-12T17:14:01.773Z,1.50
2022-08-12T17:16:30.077Z,1.40
2022-08-12T17:19:03.081Z,1.38
2022-08-12T17:21:41.046Z,1.33
2022-08-12T17:24:21.514Z,1.33
2022-08-12T17:26:54.185Z,1.23
2022-08-12T17:29:31.991Z,1.10
2022-08-12T17:32:11.209Z,1.20
2022-08-12T17:34:57.896Z,1.38
2022-08-12T17:37:27.019Z,1.50
2022-08-12T17:40:10.829Z,1.58
2022-08-12T17:42:47.571Z,1.50
2022-08-12T17:45:19.930Z,1.40
2022-08-12T17:48:04.979Z,1.13
2022-08-12T17:53:03.290Z,1.30
2022-08-12T17:55:43.118Z,1.35
2022-08-12T17:58:15.377Z,1.30
2022-08-12T18:00:47.541Z,1.48
2022-08-12T18:04:04.447Z,1.50
2022-08-12T18:06:08.851Z,1.27
2022-08-12T18:08:43.573Z,1.40
2022-08-12T18:12:04.809Z,1.75
2022-08-12T18:14:29.071Z,1.42
2022-08-12T18:17:00.434Z,1.88
2022-08-12T18:19:34.097Z,1.90
2022-08-12T18:22:22.129Z,1.88
2022-08-12T18:25:03.955Z,1.70
2022-08-12T18:27:47.144Z,1.60
2022-08-12T18:30:20.699Z,1.98
2022-08-12T18:33:04.985Z,2.00
2022-08-12T18:35:47.927Z,2.10
2022-08-12T18:38:25.367Z,2.20
2022-08-12T18:41:23.448Z,2.42
2022-08-12T18:44:08.153Z,2.22
2022-08-12T18:47:01.523Z,2.13
2022-08-12T18:49:39.145Z,1.90
2022-08-12T18:52:11.269Z,2.05
2022-08-12T18:54:49.277Z,1.77
2022-08-12T18:58:06.019Z,1.85
2022-08-12T19:00:21.314Z,2.20
2022-08-12T19:02:53.265Z,2.10
2022-08-12T19:05:54.525Z,3.53
2022-08-12T19:08:13.308Z,4.03
2022-08-12T19:10:42.733Z,5.32
2022-08-12T19:13:38.248Z,2.55
2022-08-12T19:16:11.289Z,1.80
2022-08-12T19:18:41.048Z,2.05
2022-08-12T19:21:16.936Z,2.10
2022-08-12T19:24:08.213Z,1.80
2022-08-12T19:26:36.688Z,1.92
2022-08-12T19:29:05.397Z,2.03
2022-08-12T19:31:56.093Z,2.10
2022-08-12T19:37:27.063Z,1.95
2022-08-12T19:40:09.841Z,1.90
2022-08-12T19:42:53.526Z,2.13
2022-08-12T19:45:22.250Z,1.90
2022-08-12T19:47:49.671Z,1.88
2022-08-12T19:50:20.220Z,1.80
2022-08-12T19:52:51.211Z,1.73
2022-08-12T19:55:22.594Z,1.63
2022-08-12T19:58:02.439Z,2.03
2022-08-12T20:00:34.691Z,1.90
2022-08-12T20:03:05.461Z,1.77
2022-08-12T20:06:05.171Z,1.80
2022-08-12T20:08:34.236Z,1.40
2022-08-12T20:12:14.316Z,1.88
2022-08-12T20:13:58.039Z,1.85
2022-08-12T20:16:51.670Z,1.80
2022-08-12T20:19:20.918Z,1.75
2022-08-12T20:21:51.001Z,2.30
2022-08-12T20:24:19.130Z,1.50
2022-08-12T20:26:48.177Z,1.58
2022-08-12T20:29:18.496Z,1.88
2022-08-12T20:31:52.887Z,2.13
2022-08-12T20:34:20.750Z,2.13
2022-08-12T20:36:48.006Z,1.70
2022-08-12T20:39:52.467Z,2.10
2022-08-12T20:42:18.788Z,1.75
2022-08-12T20:44:47.222Z,2.28
2022-08-12T20:47:19.977Z,1.90
2022-08-12T20:49:55.617Z,2.40
2022-08-12T20:52:34.005Z,1.60
2022-08-12T20:55:05.935Z,1.90
2022-08-12T20:58:02.705Z,1.98
2022-08-12T21:00:35.254Z,2.33
2022-08-12T21:03:21.583Z,1.70
2022-08-12T21:06:13.505Z,2.20
2022-08-12T21:08:45.459Z,2.03
2022-08-12T21:11:14.106Z,2.10
2022-08-12T21:13:42.270Z,2.10
2022-08-12T21:16:10.393Z,1.70
2022-08-12T21:18:38.367Z,1.80
2022-08-12T21:21:06.740Z,1.88
2022-08-12T21:23:56.594Z,1.83
2022-08-12T21:26:32.909Z,1.92
2022-08-12T21:29:04.254Z,1.87
2022-08-12T21:32:36.838Z,2.42
2022-08-12T21:34:29.183Z,2.03
2022-08-12T21:37:26.507Z,2.35
2022-08-12T21:39:56.302Z,2.10
2022-08-12T21:42:27.943Z,1.90
2022-08-12T21:45:47.693Z,1.88
2022-08-12T21:47:47.494Z,1.70
2022-08-12T21:50:20.518Z,2.30
2022-08-12T21:52:49.180Z,2.35
2022-08-12T21:55:20.334Z,2.20
2022-08-12T21:57:53.326Z,2.50
2022-08-12T22:00:31.782Z,2.00
2022-08-12T22:04:03.622Z,2.40
2022-08-12T22:06:30.942Z,2.08
2022-08-12T22:09:16.144Z,2.17
2022-08-12T22:11:56.435Z,2.00
2022-08-12T22:14:29.533Z,2.20
2022-08-12T22:16:58.363Z,2.28
2022-08-12T22:19:26.970Z,2.08
2022-08-12T22:21:56.298Z,2.20
2022-08-12T22:24:30.285Z,2.25
2022-08-12T22:27:14.347Z,1.83
2022-08-12T22:30:07.769Z,2.00
2022-08-12T22:32:50.792Z,1.90
2022-08-12T22:35:56.575Z,1.95
2022-08-12T22:38:24.294Z,1.90
2022-08-12T22:41:01.092Z,1.90
2022-08-12T22:44:00.815Z,2.08
2022-08-12T22:47:01.528Z,2.22
2022-08-12T22:49:36.743Z,1.90
2022-08-12T22:52:18.584Z,2.13
2022-08-12T22:55:02.871Z,1.80
2022-08-12T22:57:49.390Z,1.92
2022-08-12T23:00:24.631Z,1.80
2022-08-12T23:03:00.839Z,1.92
2022-08-12T23:05:36.725Z,2.10
2022-08-12T23:08:30.130Z,2.00
2022-08-12T23:11:05.877Z,1.98
2022-08-12T23:13:55.373Z,1.83
2022-08-12T23:16:31.911Z,2.85
2022-08-12T23:19:22.826Z,1.98
2022-08-12T23:22:06.278Z,2.08
2022-08-12T23:24:55.564Z,1.90
2022-08-12T23:27:52.274Z,2.10
2022-08-12T23:30:32.073Z,2.60
2022-08-12T23:33:13.581Z,2.00
2022-08-12T23:36:02.369Z,1.90
2022-08-12T23:38:34.719Z,1.90
2022-08-12T23:41:03.939Z,2.10
2022-08-12T23:43:39.822Z,2.10
2022-08-12T23:46:19.338Z,1.83
2022-08-12T23:48:51.997Z,2.00
2022-08-12T23:51:24.601Z,2.03
2022-08-12T23:53:56.272Z,1.90
2022-08-12T23:56:27.178Z,1.88
2022-08-12T23:58:58.413Z,1.95
